Time;durP1;ratioP1;P1;durP2;ratioP2;P2;SDS_P1;SDS_P2;PMS_P1;PMS_P2;Temp;Humidity;BMP_temperature;BMP_pressure;BME280_temperature;BME280_humidity;BME280_pressure;Samples;Min_cycle;Max_cycle;Signal;HPM_P1;HPM_P2
2022/09/28 00:02:04;;;;;;;0.70;0.70;;;;;;;11.53;86.63;94203.59;5050005;28;20197;-81
2022/09/28 00:04:32;;;;;;;0.87;0.70;;;;;;;11.52;86.01;94204.59;5038326;28;20213;-82
2022/09/28 00:06:58;;;;;;;2.20;0.80;;;;;;;11.46;86.58;94191.78;5034728;28;20229;-82
2022/09/28 00:09:26;;;;;;;0.90;0.80;;;;;;;11.44;87.40;94186.84;5037001;28;20213;-82
2022/09/28 00:11:53;;;;;;;0.83;0.80;;;;;;;11.45;86.74;94183.25;5036082;28;20201;-84
2022/09/28 00:14:20;;;;;;;0.70;0.63;;;;;;;11.48;86.61;94179.47;5037433;28;20289;-82
2022/09/28 00:16:47;;;;;;;1.47;0.80;;;;;;;11.49;86.62;94176.66;5034944;28;20237;-83
2022/09/28 00:19:14;;;;;;;1.63;0.70;;;;;;;11.50;85.57;94180.81;5034229;28;20221;-81
2022/09/28 00:21:41;;;;;;;2.20;0.80;;;;;;;11.54;85.54;94174.25;5035274;28;20563;-82
2022/09/28 00:24:13;;;;;;;0.67;0.67;;;;;;;11.55;85.34;94168.06;5036639;28;20666;-82
2022/09/28 00:26:45;;;;;;;0.93;0.70;;;;;;;11.53;85.17;94164.94;5027819;28;20236;-80
2022/09/28 00:29:17;;;;;;;1.33;0.80;;;;;;;11.53;86.01;94154.63;5035604;28;20190;-82
2022/09/28 00:31:44;;;;;;;1.40;0.70;;;;;;;11.53;85.31;94144.31;5029309;28;20190;-80
2022/09/28 00:34:10;;;;;;;0.50;0.50;;;;;;;11.51;85.34;94140.38;5035677;28;20198;-81
2022/09/28 00:36:36;;;;;;;1.37;0.60;;;;;;;11.47;84.50;94136.66;5033225;28;20222;-81
2022/09/28 00:39:05;;;;;;;0.70;0.60;;;;;;;11.41;84.14;94128.78;5034939;28;20194;-82
2022/09/28 00:41:32;;;;;;;0.50;0.50;;;;;;;11.43;84.63;94126.78;5045538;28;20244;-81
2022/09/28 00:44:34;;;;;;;0.60;0.60;;;;;;;11.42;84.64;94117.47;5035462;28;20252;-82
2022/09/28 00:47:09;;;;;;;0.53;0.53;;;;;;;11.34;84.38;94120.34;5031058;28;20283;-80
2022/09/28 00:49:42;;;;;;;2.13;0.60;;;;;;;11.34;84.91;94114.41;5048675;28;20197;-81
2022/09/28 00:52:14;;;;;;;2.20;0.70;;;;;;;11.30;84.66;94108.13;5037807;28;20270;-82
2022/09/28 00:54:43;;;;;;;1.37;0.70;;;;;;;11.31;85.45;94118.22;5035337;28;20205;-82
2022/09/28 00:57:10;;;;;;;0.50;0.50;;;;;;;11.29;84.25;94117.63;5034894;28;20225;-82
2022/09/28 00:59:37;;;;;;;0.57;0.50;;;;;;;11.33;84.03;94110.28;5035986;28;20198;-82
2022/09/28 01:02:04;;;;;;;0.80;0.60;;;;;;;11.22;83.47;94105.81;5035029;28;20757;-81
2022/09/28 01:04:31;;;;;;;0.70;0.70;;;;;;;11.18;83.89;94090.00;5039824;28;20201;-81
2022/09/28 01:06:58;;;;;;;1.93;0.60;;;;;;;11.15;82.70;94084.53;5044328;28;20230;-82
2022/09/28 01:09:27;;;;;;;0.60;0.60;;;;;;;11.05;83.49;94090.97;5035834;28;20233;-81
2022/09/28 01:11:54;;;;;;;1.47;0.60;;;;;;;11.05;82.66;94085.03;5035560;28;20216;-82
2022/09/28 01:14:24;;;;;;;0.60;0.60;;;;;;;11.09;82.90;94086.16;5045400;28;20220;-81
2022/09/28 01:17:01;;;;;;;0.93;0.60;;;;;;;11.06;82.96;94078.88;5048959;28;20261;-82
2022/09/28 01:20:06;;;;;;;0.70;0.70;;;;;;;11.10;83.02;94068.94;5047452;28;20221;-82
2022/09/28 01:22:58;;;;;;;0.83;0.50;;;;;;;10.90;82.27;94069.94;5047645;28;20202;-81
2022/09/28 01:25:33;;;;;;;0.60;0.60;;;;;;;10.88;82.63;94073.72;5034507;28;20226;-82
2022/09/28 01:28:05;;;;;;;1.60;0.70;;;;;;;10.89;82.89;94065.81;5033971;28;20220;-81
2022/09/28 01:30:40;;;;;;;0.50;0.50;;;;;;;10.84;83.67;94070.78;5047774;28;20186;-81
2022/09/28 01:33:12;;;;;;;0.60;0.60;;;;;;;10.92;83.36;94056.84;5045853;28;20194;-80
2022/09/28 01:35:43;;;;;;;1.37;0.67;;;;;;;11.02;82.80;94032.16;5033964;28;21410;-81
2022/09/28 01:38:14;;;;;;;1.37;0.60;;;;;;;10.92;83.48;94038.84;5034793;28;20209;-83
2022/09/28 01:40:41;;;;;;;0.60;0.60;;;;;;;10.98;82.99;94045.69;5035364;28;20221;-81
2022/09/28 01:43:14;;;;;;;1.17;0.70;;;;;;;11.03;82.31;94028.59;5034460;28;20256;-80
2022/09/28 01:45:44;;;;;;;0.87;0.70;;;;;;;11.06;82.65;94023.00;5046561;28;20232;-81
2022/09/28 01:48:13;;;;;;;0.60;0.60;;;;;;;11.03;81.97;94020.84;5047837;28;20795;-82
2022/09/28 01:50:42;;;;;;;0.53;0.50;;;;;;;11.06;81.70;94001.63;5046487;28;20221;-82
2022/09/28 01:53:15;;;;;;;0.60;0.60;;;;;;;11.12;81.42;94000.75;5047489;28;20255;-82
2022/09/28 01:55:45;;;;;;;0.60;0.60;;;;;;;11.14;81.38;93996.16;5043154;28;20232;-81
2022/09/28 01:58:17;;;;;;;2.33;0.63;;;;;;;11.20;80.79;93987.53;5033528;28;20206;-78
2022/09/28 02:00:49;;;;;;;0.63;0.63;;;;;;;11.24;81.19;93982.75;5041497;28;20617;-81
2022/09/28 02:03:19;;;;;;;1.73;0.50;;;;;;;11.22;80.59;93975.22;5046635;28;20201;-82
2022/09/28 02:05:52;;;;;;;2.00;0.80;;;;;;;11.26;79.63;93966.06;5033262;28;20222;-81
2022/09/28 02:08:25;;;;;;;0.83;0.60;;;;;;;11.21;80.51;93958.22;5036693;28;20657;-82
2022/09/28 02:10:58;;;;;;;1.40;0.57;;;;;;;11.21;79.54;93953.06;5036422;28;20191;-81
2022/09/28 02:13:31;;;;;;;1.03;0.80;;;;;;;11.26;79.87;93955.75;5040623;28;20288;-82
2022/09/28 02:16:04;;;;;;;0.77;0.77;;;;;;;11.33;80.01;93942.78;5050563;28;20603;-81
2022/09/28 02:18:31;;;;;;;1.23;0.67;;;;;;;11.26;78.95;93942.09;5049686;28;20198;-82
2022/09/28 02:21:01;;;;;;;0.60;0.60;;;;;;;11.33;79.58;93935.84;5051342;28;20443;-81
2022/09/28 02:23:30;;;;;;;1.37;0.80;;;;;;;11.36;79.21;93934.59;5049862;28;20205;-81
2022/09/28 02:26:01;;;;;;;1.37;0.73;;;;;;;11.39;78.62;93927.22;5050050;28;20236;-81
2022/09/28 02:28:30;;;;;;;0.80;0.60;;;;;;;11.34;78.56;93918.59;5041820;28;20883;-82
2022/09/28 02:30:56;;;;;;;0.90;0.80;;;;;;;11.35;78.91;93926.09;5036422;28;20194;-81
2022/09/28 02:33:30;;;;;;;0.77;0.60;;;;;;;11.30;79.24;93915.69;5038602;28;20197;-82
2022/09/28 02:35:58;;;;;;;0.60;0.60;;;;;;;11.25;79.04;93912.97;5035721;28;20230;-82
2022/09/28 02:38:24;;;;;;;0.80;0.70;;;;;;;11.31;78.45;93906.94;5037643;28;20194;-83
2022/09/28 02:41:02;;;;;;;0.73;0.67;;;;;;;11.23;78.19;93904.69;5036323;28;20214;-79
2022/09/28 02:43:41;;;;;;;0.67;0.67;;;;;;;11.26;78.32;93899.09;5038335;28;20634;-82
2022/09/28 02:46:18;;;;;;;1.23;0.70;;;;;;;11.27;78.05;93903.25;5033843;28;20299;-80
2022/09/28 02:48:59;;;;;;;0.70;0.70;;;;;;;11.22;77.59;93894.59;5036466;28;20211;-83
2022/09/28 02:51:36;;;;;;;1.83;0.73;;;;;;;11.22;77.80;93889.44;5043739;28;20209;-81
2022/09/28 02:54:23;;;;;;;0.60;0.60;;;;;;;11.24;77.69;93874.56;5050954;28;20216;-82
2022/09/28 02:57:01;;;;;;;2.53;0.83;;;;;;;11.20;77.30;93878.56;5029517;28;20275;-83
2022/09/28 02:59:44;;;;;;;0.70;0.70;;;;;;;11.11;76.98;93877.34;5037563;28;20198;-81
2022/09/28 03:02:23;;;;;;;0.83;0.60;;;;;;;11.01;76.57;93873.50;5035433;28;20268;-81
2022/09/28 03:05:06;;;;;;;1.57;0.83;;;;;;;10.96;76.90;93862.31;5031294;28;20781;-82
2022/09/28 03:07:36;;;;;;;0.50;0.50;;;;;;;11.00;77.06;93861.63;5036957;28;20255;-80
2022/09/28 03:10:10;;;;;;;1.70;0.60;;;;;;;11.06;76.85;93858.19;5045916;28;20198;-83
2022/09/28 03:12:39;;;;;;;1.87;0.70;;;;;;;11.14;76.30;93856.31;5049216;28;20194;-82
2022/09/28 03:15:09;;;;;;;1.13;0.70;;;;;;;11.20;76.57;93850.25;5049864;28;20239;-82
2022/09/28 03:17:35;;;;;;;0.60;0.60;;;;;;;11.23;76.47;93853.16;5038192;28;20588;-82
2022/09/28 03:20:02;;;;;;;0.63;0.50;;;;;;;11.23;75.89;93855.75;5035834;28;20206;-81
2022/09/28 03:22:28;;;;;;;1.57;0.70;;;;;;;11.21;75.14;93852.59;5036437;28;20221;-82
2022/09/28 03:24:55;;;;;;;1.27;0.70;;;;;;;11.25;75.51;93860.66;5035793;28;20218;-81
2022/09/28 03:27:22;;;;;;;0.60;0.60;;;;;;;11.26;75.78;93850.16;5035843;28;20276;-82
2022/09/28 03:29:48;;;;;;;1.20;0.73;;;;;;;11.30;75.53;93856.44;5035880;28;20198;-81
2022/09/28 03:32:16;;;;;;;0.60;0.60;;;;;;;11.22;74.92;93853.38;5033491;28;20269;-82
2022/09/28 03:34:42;;;;;;;0.67;0.67;;;;;;;11.17;75.50;93858.41;5036295;28;20197;-81
2022/09/28 03:37:09;;;;;;;0.70;0.70;;;;;;;11.22;76.31;93851.59;5034956;28;20238;-82
2022/09/28 03:39:35;;;;;;;0.60;0.50;;;;;;;11.30;75.80;93853.06;5036860;28;20217;-81
2022/09/28 03:42:02;;;;;;;1.53;0.77;;;;;;;11.33;75.43;93856.00;5035452;28;20885;-82
2022/09/28 03:44:28;;;;;;;0.80;0.80;;;;;;;11.31;75.47;93846.91;5048050;28;20201;-82
2022/09/28 03:46:54;;;;;;;1.73;0.80;;;;;;;11.31;75.95;93844.34;5053116;28;20286;-82
2022/09/28 03:49:22;;;;;;;0.93;0.60;;;;;;;11.28;76.51;93842.97;5041460;28;20202;-81
2022/09/28 03:51:49;;;;;;;0.70;0.70;;;;;;;11.26;76.74;93833.91;5038475;28;20204;-83
2022/09/28 03:54:15;;;;;;;0.60;0.60;;;;;;;11.31;76.66;93834.03;5044546;28;20197;-80
2022/09/28 03:56:41;;;;;;;0.70;0.70;;;;;;;11.27;77.52;93840.63;5052677;28;20237;-82
2022/09/28 03:59:08;;;;;;;2.00;0.90;;;;;;;11.21;77.89;93836.34;5037163;28;20203;-83
2022/09/28 04:01:34;;;;;;;1.17;1.10;;;;;;;11.12;78.20;93830.78;5046701;28;20225;-81
2022/09/28 04:04:01;;;;;;;1.23;0.83;;;;;;;10.98;78.28;93824.22;5044180;28;20236;-82
2022/09/28 04:06:29;;;;;;;1.87;0.80;;;;;;;10.95;79.35;93822.91;5033677;28;20229;-81
2022/09/28 04:08:55;;;;;;;0.70;0.70;;;;;;;10.90;79.32;93832.28;5035784;28;20190;-83
2022/09/28 04:11:22;;;;;;;0.93;0.73;;;;;;;10.95;79.35;93817.75;5048603;28;20196;-81
2022/09/28 04:13:49;;;;;;;1.00;0.70;;;;;;;10.99;79.43;93823.22;5048884;28;20194;-81
2022/09/28 04:16:17;;;;;;;0.60;0.60;;;;;;;10.97;78.69;93814.94;5048311;28;20230;-81
2022/09/28 04:18:44;;;;;;;0.80;0.80;;;;;;;11.01;78.87;93818.66;5035544;28;20197;-82
2022/09/28 04:21:15;;;;;;;0.70;0.70;;;;;;;10.92;79.27;93809.69;5031835;28;20226;-81
2022/09/28 04:23:43;;;;;;;0.60;0.60;;;;;;;11.00;78.64;93812.72;5042282;28;20615;-81
2022/09/28 04:26:15;;;;;;;0.60;0.60;;;;;;;11.01;78.66;93816.84;5037262;28;20305;-81
2022/09/28 04:31:25;;;;;;;0.93;0.60;;;;;;;11.04;78.16;93815.63;5031321;28;20205;-82
2022/09/28 04:33:52;;;;;;;1.83;0.70;;;;;;;11.10;78.18;93812.19;5032038;28;20575;-81
2022/09/28 04:36:19;;;;;;;1.43;0.70;;;;;;;11.12;77.91;93811.94;5046350;28;20241;-81
2022/09/28 04:38:47;;;;;;;2.60;1.23;;;;;;;11.29;89.08;93818.00;5031001;28;20206;-80
2022/09/28 04:41:13;;;;;;;1.50;0.60;;;;;;;11.47;79.89;93807.59;5045177;28;20221;-81
2022/09/28 04:43:40;;;;;;;0.77;0.73;;;;;;;11.76;80.37;93804.09;5030756;28;20724;-78
2022/09/28 04:46:06;;;;;;;1.83;0.90;;;;;;;11.98;79.15;93806.84;5025755;28;20238;-81
2022/09/28 04:48:33;;;;;;;0.93;0.70;;;;;;;12.17;77.57;93809.25;5028187;28;20206;-78
2022/09/28 04:51:00;;;;;;;0.70;0.70;;;;;;;12.15;75.23;93812.06;5028449;28;20260;-80
2022/09/28 04:53:27;;;;;;;0.70;0.70;;;;;;;11.97;74.52;93817.38;5025136;28;20414;-82
2022/09/28 04:56:00;;;;;;;0.60;0.60;;;;;;;11.77;75.18;93817.75;5029966;28;20233;-82
2022/09/28 04:58:27;;;;;;;1.03;0.70;;;;;;;11.68;76.23;93821.69;5031469;28;20213;-81
2022/09/28 05:00:58;;;;;;;1.67;0.70;;;;;;;11.62;76.46;93825.16;5031016;28;20199;-82
2022/09/28 05:03:24;;;;;;;0.60;0.60;;;;;;;11.63;76.54;93839.63;5047719;28;20213;-82
2022/09/28 05:05:51;;;;;;;1.00;0.90;;;;;;;11.48;75.88;93832.34;5031190;28;20234;-82
2022/09/28 05:08:17;;;;;;;1.17;1.00;;;;;;;11.47;76.45;93827.41;5031707;28;20203;-81
2022/09/28 05:10:45;;;;;;;1.20;0.87;;;;;;;11.37;77.25;93840.84;5029148;28;20292;-81
2022/09/28 05:13:14;;;;;;;0.77;0.70;;;;;;;11.36;77.44;93837.47;5031341;28;20280;-82
2022/09/28 05:15:41;;;;;;;3.07;0.90;;;;;;;11.34;78.36;93824.06;5031005;28;20709;-80
2022/09/28 05:18:08;;;;;;;0.83;0.70;;;;;;;11.33;78.42;93834.59;5031263;28;20202;-82
2022/09/28 05:20:40;;;;;;;1.30;0.70;;;;;;;11.25;78.99;93822.81;5032023;28;20203;-82
2022/09/28 05:23:09;;;;;;;1.13;0.70;;;;;;;11.12;80.10;93817.09;5030812;28;20775;-82
2022/09/28 05:25:36;;;;;;;0.90;0.60;;;;;;;11.17;79.79;93807.69;5029204;28;20651;-83
2022/09/28 05:28:02;;;;;;;2.00;0.70;;;;;;;11.06;80.58;93804.09;5030380;28;20232;-83
2022/09/28 05:30:30;;;;;;;0.63;0.63;;;;;;;11.05;81.05;93802.53;5031127;28;20285;-81
2022/09/28 05:32:57;;;;;;;0.70;0.70;;;;;;;10.97;81.65;93791.75;5031430;28;20248;-81
2022/09/28 05:35:23;;;;;;;0.70;0.70;;;;;;;10.91;83.25;93788.31;5014903;28;20230;-82
2022/09/28 05:37:49;;;;;;;1.33;0.70;;;;;;;10.90;83.42;93784.16;5013675;28;20238;-82
2022/09/28 05:40:17;;;;;;;2.40;0.67;;;;;;;10.77;82.75;93779.22;5031532;28;20213;-83
2022/09/28 05:42:44;;;;;;;1.50;0.60;;;;;;;10.82;83.38;93781.13;5031550;28;20218;-82
2022/09/28 05:45:10;;;;;;;0.60;0.60;;;;;;;10.82;83.71;93771.59;5034430;28;20206;-81
2022/09/28 05:47:39;;;;;;;0.70;0.60;;;;;;;10.80;83.40;93765.91;5034712;28;20222;-81
2022/09/28 05:50:07;;;;;;;0.93;0.70;;;;;;;10.81;82.58;93769.25;5034067;28;20678;-81
2022/09/28 05:52:33;;;;;;;1.13;1.03;;;;;;;10.73;83.28;93763.44;5034301;28;20202;-81
2022/09/28 05:55:01;;;;;;;0.90;0.83;;;;;;;10.73;83.76;93762.66;5034566;28;20712;-82
2022/09/28 05:57:28;;;;;;;0.80;0.80;;;;;;;10.75;83.94;93758.06;5034880;28;20229;-81
2022/09/28 05:59:55;;;;;;;1.37;0.80;;;;;;;10.76;83.42;93756.28;5034582;28;20202;-82
2022/09/28 06:02:21;;;;;;;1.10;0.90;;;;;;;10.70;84.34;93750.22;5034382;28;20276;-81
2022/09/28 06:04:50;;;;;;;3.73;1.07;;;;;;;10.57;85.81;93733.22;5032442;28;20382;-81
2022/09/28 06:07:16;;;;;;;0.80;0.80;;;;;;;10.46;86.53;93741.69;5034147;28;20244;-81
2022/09/28 06:09:43;;;;;;;0.90;0.80;;;;;;;10.46;87.63;93740.91;5034793;28;20252;-82
2022/09/28 06:12:09;;;;;;;1.67;0.80;;;;;;;10.51;87.37;93733.31;5034481;28;20252;-82
2022/09/28 06:14:35;;;;;;;0.70;0.70;;;;;;;10.52;87.98;93740.03;5034679;28;20206;-81
2022/09/28 06:17:02;;;;;;;0.80;0.80;;;;;;;10.52;89.46;93740.03;5033951;28;20238;-81
2022/09/28 06:19:28;;;;;;;1.53;0.70;;;;;;;10.54;89.23;93732.88;5032054;28;20213;-80
2022/09/28 06:21:56;;;;;;;0.87;0.70;;;;;;;10.59;87.09;93736.31;5034329;28;20234;-82
2022/09/28 06:24:22;;;;;;;2.23;1.60;;;;;;;10.63;87.39;93737.47;5034753;28;20264;-81
2022/09/28 06:26:49;;;;;;;0.90;0.90;;;;;;;10.68;87.22;93740.16;5032758;28;20303;-82
2022/09/28 06:29:18;;;;;;;1.80;0.80;;;;;;;10.77;87.18;93742.41;5034419;28;20285;-82
2022/09/28 06:31:44;;;;;;;0.90;0.90;;;;;;;10.81;86.93;93739.16;5031638;28;20252;-80
2022/09/28 06:34:11;;;;;;;0.77;0.77;;;;;;;10.69;88.58;93738.38;5033077;28;20210;-81
2022/09/28 06:36:38;;;;;;;1.23;0.80;;;;;;;10.71;87.78;93734.56;5031437;28;20226;-81
2022/09/28 06:39:05;;;;;;;1.20;0.90;;;;;;;10.61;89.54;93734.31;5033881;28;20256;-82
2022/09/28 06:41:32;;;;;;;0.83;0.80;;;;;;;10.64;88.07;93736.44;5033420;28;20289;-81
2022/09/28 06:43:58;;;;;;;1.23;0.90;;;;;;;10.67;87.79;93748.09;5033815;28;20624;-80
2022/09/28 06:46:26;;;;;;;1.37;0.80;;;;;;;10.63;87.64;93746.97;5032885;28;20246;-81
2022/09/28 06:48:53;;;;;;;1.27;0.93;;;;;;;10.72;86.91;93738.72;5033581;28;20674;-82
2022/09/28 06:51:19;;;;;;;1.27;0.80;;;;;;;10.75;86.85;93741.84;5034502;28;20228;-82
2022/09/28 06:53:46;;;;;;;0.73;0.70;;;;;;;10.65;86.99;93735.44;5031724;28;20198;-82
2022/09/28 06:56:13;;;;;;;0.93;0.80;;;;;;;10.60;86.81;93737.09;5032893;28;20234;-81
2022/09/28 06:58:40;;;;;;;0.70;0.70;;;;;;;10.56;86.16;93733.44;5033273;28;20606;-81
2022/09/28 07:01:06;;;;;;;0.87;0.87;;;;;;;10.52;87.98;93735.66;5032610;28;20214;-82
2022/09/28 07:03:33;;;;;;;1.00;0.90;;;;;;;10.52;87.86;93740.81;5033031;28;20255;-81
2022/09/28 07:06:00;;;;;;;0.83;0.80;;;;;;;10.49;88.06;93740.47;5032975;28;20230;-80
2022/09/28 07:08:28;;;;;;;1.53;0.70;;;;;;;10.50;87.48;93745.38;5031379;28;20671;-81
2022/09/28 07:10:55;;;;;;;0.80;0.80;;;;;;;10.62;87.17;93746.19;5032440;28;20210;-81
2022/09/28 07:13:24;;;;;;;1.00;0.90;;;;;;;10.69;87.41;93752.03;5033876;28;20281;-81
2022/09/28 07:15:54;;;;;;;1.77;1.20;;;;;;;10.77;86.50;93760.44;5033742;28;20237;-80
2022/09/28 07:18:20;;;;;;;1.10;0.80;;;;;;;10.83;86.81;93765.47;5033430;28;20195;-82
2022/09/28 07:20:47;;;;;;;1.93;0.80;;;;;;;10.84;86.41;93767.03;5032536;28;20198;-80
2022/09/28 07:23:14;;;;;;;1.03;0.70;;;;;;;10.96;86.58;93770.41;5033510;28;20727;-80
2022/09/28 07:28:16;;;;;;;0.70;0.60;;;;;;;10.96;86.46;93770.41;5356130;22;20612;-81
2022/09/28 07:30:44;;;;;;;0.93;0.73;;;;;;;11.00;86.34;93768.16;5085600;28;20200;-80
2022/09/28 07:33:13;;;;;;;0.70;0.63;;;;;;;10.98;86.38;93777.88;5093938;28;20192;-81
2022/09/28 07:35:40;;;;;;;1.67;0.60;;;;;;;11.01;86.34;93770.50;5074699;28;20251;-80
2022/09/28 07:38:08;;;;;;;0.83;0.70;;;;;;;11.02;86.53;93771.28;5053713;28;20186;-81
2022/09/28 07:43:21;;;;;;;1.27;0.70;;;;;;;11.02;87.63;93768.72;5044573;28;20263;-80
2022/09/28 07:45:51;;;;;;;1.20;0.90;;;;;;;11.08;87.41;93781.50;5051401;28;20226;-81
2022/09/28 07:48:18;;;;;;;1.53;0.83;;;;;;;11.07;87.84;93776.56;5052374;28;20233;-81
2022/09/28 07:50:49;;;;;;;1.17;0.70;;;;;;;10.99;87.56;93771.72;5053861;28;20300;-81
2022/09/28 07:53:15;;;;;;;0.80;0.70;;;;;;;10.93;88.22;93775.22;5053182;28;20292;-80
2022/09/28 07:55:41;;;;;;;0.50;0.50;;;;;;;10.86;88.96;93779.69;5052222;28;20233;-81
2022/09/28 07:58:08;;;;;;;2.07;0.80;;;;;;;10.82;90.03;93779.34;5051494;28;20202;-81
2022/09/28 08:00:34;;;;;;;0.70;0.70;;;;;;;10.80;89.51;93788.28;5048137;28;20293;-80
2022/09/28 08:03:03;;;;;;;1.90;0.80;;;;;;;10.79;90.48;93787.50;5045277;28;20221;-81
2022/09/28 08:05:30;;;;;;;0.70;0.70;;;;;;;10.82;90.64;93778.53;5031413;28;20241;-81
2022/09/28 08:07:57;;;;;;;3.63;0.60;;;;;;;10.82;91.04;93787.06;5032199;28;20333;-78
2022/09/28 08:10:24;;;;;;;0.50;0.50;;;;;;;10.92;91.50;93786.53;5051723;28;20582;-80
2022/09/28 08:12:54;;;;;;;1.57;0.60;;;;;;;10.98;90.71;93791.53;5051108;28;20251;-80
2022/09/28 08:15:20;;;;;;;1.07;0.80;;;;;;;10.99;90.64;93794.91;5045782;28;20709;-82
2022/09/28 08:17:47;;;;;;;1.10;0.80;;;;;;;10.96;92.33;93803.09;5060816;28;20687;-84
2022/09/28 08:23:03;;;;;;;0.60;0.60;;;;;;;11.01;92.03;93796.25;5072720;28;20726;-83
2022/09/28 08:25:29;;;;;;;11.20;9.43;;;;;;;11.04;93.11;93789.88;5072501;28;20232;-81
2022/09/28 08:27:55;;;;;;;1.30;1.00;;;;;;;11.14;92.15;93804.78;5055761;28;20314;-81
2022/09/28 08:30:22;;;;;;;1.83;0.70;;;;;;;11.22;91.58;93799.28;5051055;28;20318;-81
2022/09/28 08:32:50;;;;;;;1.80;0.70;;;;;;;11.23;92.14;93811.94;5051945;28;20204;-81
2022/09/28 08:35:18;;;;;;;1.60;0.70;;;;;;;11.28;91.73;93808.72;5051543;28;20704;-79
2022/09/28 08:37:51;;;;;;;0.60;0.60;;;;;;;11.33;91.39;93807.03;5050452;28;20312;-80
2022/09/28 08:40:23;;;;;;;1.07;0.67;;;;;;;11.38;91.77;93820.00;5031032;28;20229;-81
2022/09/28 08:42:53;;;;;;;1.27;0.73;;;;;;;11.33;92.34;93821.72;5036683;28;20272;-81
2022/09/28 08:45:25;;;;;;;0.60;0.60;;;;;;;11.29;92.95;93811.06;5049414;28;20605;-80
2022/09/28 08:50:49;;;;;;;1.07;0.60;;;;;;;11.17;94.13;93820.56;5051863;28;20201;-82
2022/09/28 08:53:30;;;;;;;0.50;0.50;;;;;;;11.19;93.93;93823.69;5052813;28;20235;-82
2022/09/28 08:55:58;;;;;;;0.73;0.73;;;;;;;11.25;93.83;93827.19;5050722;28;20662;-82
2022/09/28 08:58:31;;;;;;;0.73;0.70;;;;;;;11.29;93.88;93841.97;5051998;28;20209;-82
2022/09/28 09:00:58;;;;;;;7.40;6.30;;;;;;;11.42;93.68;93846.91;5049590;28;20612;-81
2022/09/28 09:03:32;;;;;;;0.80;0.80;;;;;;;11.33;94.61;93862.94;5051136;28;20233;-81
2022/09/28 09:06:09;;;;;;;1.07;0.60;;;;;;;11.38;95.69;93893.94;5050647;28;20251;-82
2022/09/28 09:08:49;;;;;;;1.67;1.17;;;;;;;11.41;98.36;93919.28;5051692;28;20201;-80
2022/09/28 09:11:30;;;;;;;1.73;1.00;;;;;;;11.21;96.34;93926.50;5040063;28;20277;-82
2022/09/28 09:14:11;;;;;;;1.27;0.80;;;;;;;11.07;94.58;93915.63;5052183;28;20295;-82
2022/09/28 09:16:50;;;;;;;0.97;0.80;;;;;;;10.94;96.55;93913.25;5049893;28;20228;-81
2022/09/28 09:19:22;;;;;;;2.47;0.70;;;;;;;10.88;96.07;93919.25;5049552;28;20209;-79
2022/09/28 09:22:00;;;;;;;1.13;1.03;;;;;;;10.87;96.96;93921.06;5047057;28;20657;-82
2022/09/28 09:24:32;;;;;;;1.90;1.10;;;;;;;10.83;96.42;93908.81;5041325;28;20730;-82
2022/09/28 09:27:05;;;;;;;1.30;1.10;;;;;;;10.90;97.00;93905.16;5048466;28;20253;-81
2022/09/28 09:29:45;;;;;;;1.83;1.27;;;;;;;11.00;96.24;93912.34;5050207;28;20198;-82
2022/09/28 09:32:29;;;;;;;1.70;1.20;;;;;;;10.97;97.30;93905.06;5050487;28;20189;-82
2022/09/28 09:35:20;;;;;;;2.00;1.53;;;;;;;10.97;96.14;93907.63;5042283;28;20257;-80
2022/09/28 09:38:01;;;;;;;1.20;1.10;;;;;;;11.06;95.76;93917.41;5041360;28;20218;-82
2022/09/28 09:40:47;;;;;;;1.90;1.30;;;;;;;11.09;95.88;93918.78;5046173;28;20227;-82
2022/09/28 09:43:48;;;;;;;3.07;1.10;;;;;;;11.17;93.30;93923.59;5048248;28;20220;-82
2022/09/28 09:46:19;;;;;;;3.33;1.63;;;;;;;11.17;96.26;93928.75;5048525;28;20221;-81
2022/09/28 09:48:52;;;;;;;1.77;1.30;;;;;;;11.15;96.06;93941.06;5050868;28;20239;-81
2022/09/28 09:51:27;;;;;;;2.00;1.60;;;;;;;11.23;94.63;93939.97;5045005;28;20272;-80
2022/09/28 09:54:00;;;;;;;1.67;1.30;;;;;;;11.24;94.96;93936.38;5049059;28;20215;-82
2022/09/28 09:56:34;;;;;;;1.10;1.00;;;;;;;11.31;94.20;93950.75;5050160;28;20233;-83
2022/09/28 09:59:06;;;;;;;1.23;1.07;;;;;;;11.35;93.76;93945.94;5050218;28;20280;-82
2022/09/28 10:01:37;;;;;;;1.97;1.10;;;;;;;11.24;92.92;93947.47;5050216;28;20275;-81
2022/09/28 10:04:06;;;;;;;1.27;0.90;;;;;;;11.27;94.12;93952.19;5049635;28;20217;-81
2022/09/28 10:06:34;;;;;;;0.97;0.90;;;;;;;11.28;92.66;93940.09;5049066;28;20279;-82
2022/09/28 10:09:05;;;;;;;1.33;0.80;;;;;;;11.35;93.83;93948.53;5054446;28;20190;-82
2022/09/28 10:11:35;;;;;;;1.47;0.90;;;;;;;11.32;91.36;93954.91;5051176;28;20202;-80
2022/09/28 10:14:02;;;;;;;1.03;1.00;;;;;;;11.37;92.04;93939.53;5049891;28;20201;-80
2022/09/28 10:16:31;;;;;;;2.33;1.10;;;;;;;11.43;93.10;93945.59;5044721;28;20334;-83
2022/09/28 10:19:01;;;;;;;1.23;0.83;;;;;;;11.42;91.01;93955.13;5049659;28;20204;-81
2022/09/28 10:21:28;;;;;;;0.73;0.73;;;;;;;11.35;89.35;93958.81;5049214;28;20228;-82
2022/09/28 10:23:58;;;;;;;1.00;0.80;;;;;;;11.39;90.10;93965.09;5050254;28;20229;-82
2022/09/28 10:26:32;;;;;;;14.20;10.70;;;;;;;11.33;89.58;93971.13;5049284;28;20236;-81
2022/09/28 10:29:01;;;;;;;4.87;4.37;;;;;;;11.40;89.83;93971.81;5047683;28;20201;-82
2022/09/28 10:31:36;;;;;;;1.50;1.30;;;;;;;11.46;90.02;93960.63;5059189;28;20292;-84
2022/09/28 10:34:03;;;;;;;1.50;1.07;;;;;;;11.52;90.51;93966.69;5047385;28;20262;-81
2022/09/28 10:36:37;;;;;;;0.80;0.80;;;;;;;11.49;90.28;93962.75;5052090;28;20308;-81
2022/09/28 10:39:04;;;;;;;1.77;0.90;;;;;;;11.59;89.30;93963.00;5052186;28;20251;-81
2022/09/28 10:41:33;;;;;;;2.90;1.00;;;;;;;11.79;92.19;93972.22;5044074;28;20203;-81
2022/09/28 10:44:09;;;;;;;2.00;0.73;;;;;;;11.90;88.87;93971.47;5042788;28;20252;-81
2022/09/28 10:46:38;;;;;;;1.00;0.90;;;;;;;11.79;88.79;93974.81;5051948;28;20791;-81
2022/09/28 10:49:08;;;;;;;0.90;0.90;;;;;;;11.74;89.39;93980.59;5052894;28;20194;-81
2022/09/28 10:51:41;;;;;;;4.00;3.37;;;;;;;11.78;89.79;93981.75;5044644;28;20288;-80
2022/09/28 10:54:14;;;;;;;8.60;6.60;;;;;;;11.83;90.22;93979.31;5049615;28;20185;-82
2022/09/28 10:56:43;;;;;;;2.50;2.30;;;;;;;11.81;90.22;93976.16;5049846;28;20260;-80
2022/09/28 10:59:23;;;;;;;1.00;0.90;;;;;;;11.71;88.80;93981.84;5052938;28;20193;-80
2022/09/28 11:01:54;;;;;;;1.10;1.00;;;;;;;11.72;89.40;93975.69;5052884;28;20202;-82
2022/09/28 11:04:23;;;;;;;0.90;0.90;;;;;;;11.80;89.61;93971.22;5052608;28;20216;-81
2022/09/28 11:06:50;;;;;;;1.40;0.97;;;;;;;11.84;89.53;93969.78;5051853;28;20275;-79
2022/09/28 11:09:28;;;;;;;0.80;0.80;;;;;;;11.91;89.78;93963.50;5049300;28;20357;-81
2022/09/28 11:11:57;;;;;;;1.17;1.07;;;;;;;11.99;88.43;93964.97;5052345;28;20209;-80
2022/09/28 11:14:29;;;;;;;1.10;1.00;;;;;;;11.88;88.18;93981.22;5053298;28;20202;-80
2022/09/28 11:17:17;;;;;;;1.27;0.90;;;;;;;11.85;88.65;93985.03;5050405;28;20233;-80
2022/09/28 11:19:44;;;;;;;1.63;1.10;;;;;;;11.93;89.38;93971.03;5051323;28;20201;-82
2022/09/28 11:22:22;;;;;;;1.57;1.00;;;;;;;11.82;86.96;93984.69;5052418;28;20197;-80
2022/09/28 11:24:49;;;;;;;0.80;0.80;;;;;;;11.76;87.87;93988.94;5048808;28;20209;-79
2022/09/28 11:27:26;;;;;;;1.13;1.03;;;;;;;11.77;89.07;93980.97;5050413;28;20278;-81
2022/09/28 11:29:56;;;;;;;1.23;1.00;;;;;;;11.75;89.83;93982.97;5051005;28;20205;-81
2022/09/28 11:32:25;;;;;;;1.43;0.90;;;;;;;11.78;89.75;93986.91;5051258;28;20203;-82
2022/09/28 11:34:52;;;;;;;2.23;1.10;;;;;;;11.77;89.46;93999.03;5051301;28;20197;-81
2022/09/28 11:37:31;;;;;;;0.97;0.90;;;;;;;11.79;89.28;93985.13;5050320;28;20271;-81
2022/09/28 11:40:12;;;;;;;1.57;0.93;;;;;;;11.74;87.80;93978.81;5048710;28;20660;-81
2022/09/28 11:42:50;;;;;;;1.83;1.17;;;;;;;11.83;89.12;93981.09;5049513;28;20200;-78
2022/09/28 11:45:32;;;;;;;2.73;1.23;;;;;;;11.93;89.36;93973.59;5035024;28;20229;-81
2022/09/28 11:48:01;;;;;;;1.40;1.30;;;;;;;12.00;88.70;93969.91;5050685;28;20217;-80
2022/09/28 11:50:35;;;;;;;1.17;1.07;;;;;;;11.99;88.32;93977.84;5049593;28;20202;-80
2022/09/28 11:53:13;;;;;;;1.17;1.10;;;;;;;11.83;87.65;93984.47;5048749;28;20692;-81
2022/09/28 11:55:44;;;;;;;9.90;8.20;;;;;;;11.80;88.07;93989.28;5050362;28;20748;-80
2022/09/28 11:58:20;;;;;;;6.23;4.73;;;;;;;11.86;88.64;93998.72;5048102;28;20300;-79
2022/09/28 12:00:52;;;;;;;2.67;1.80;;;;;;;11.90;89.04;94003.19;5046957;28;20259;-79
2022/09/28 12:03:24;;;;;;;1.63;1.50;;;;;;;11.97;88.84;94000.50;5042518;28;20263;-80